createdAt,value
2018-04-13T00:00:34.630Z,0
2018-04-13T00:01:34.886Z,0
2018-04-13T00:02:34.866Z,0
2018-04-13T00:03:35.122Z,0
2018-04-13T00:04:34.838Z,0
2018-04-13T00:05:34.828Z,0
2018-04-13T00:06:34.806Z,0
2018-04-13T00:07:34.792Z,0
2018-04-13T00:08:34.779Z,0
2018-04-13T00:09:34.767Z,0
2018-04-13T00:10:34.746Z,0
2018-04-13T00:11:34.212Z,0
2018-04-13T00:12:34.453Z,0
2018-04-13T00:13:34.969Z,0
2018-04-13T00:14:34.431Z,0
2018-04-13T00:15:35.000Z,0
2018-04-13T00:16:34.662Z,0
2018-04-13T00:17:34.112Z,0
2018-04-13T00:18:34.646Z,0
2018-04-13T00:19:34.621Z,0
2018-04-13T00:20:34.343Z,0
2018-04-13T00:21:34.601Z,0
2018-04-13T00:22:34.582Z,0
2018-04-13T00:23:34.560Z,0
2018-04-13T00:24:34.813Z,0
2018-04-13T00:25:34.529Z,0
2018-04-13T00:26:34.516Z,0
2018-04-13T00:27:34.973Z,0
2018-04-13T00:28:34.761Z,0
2018-04-13T00:29:34.476Z,0
2018-04-13T00:30:34.194Z,0
2018-04-13T00:31:34.175Z,0
2018-04-13T00:32:34.426Z,0
2018-04-13T00:33:33.881Z,0
2018-04-13T00:34:34.668Z,0
2018-04-13T00:35:34.385Z,0
2018-04-13T00:36:34.646Z,0
2018-04-13T00:37:34.353Z,0
2018-04-13T00:38:34.340Z,0
2018-04-13T00:39:34.054Z,0
2018-04-13T00:40:34.050Z,0
2018-04-13T00:41:34.028Z,0
2018-04-13T00:42:34.283Z,0
2018-04-13T00:43:34.522Z,0
2018-04-13T00:44:33.718Z,0
2018-04-13T00:45:33.963Z,0
2018-04-13T00:46:34.225Z,0
2018-04-13T00:47:33.938Z,0
2018-04-13T00:48:34.190Z,0
2018-04-13T00:49:34.167Z,0
2018-04-13T00:50:34.154Z,0
2018-04-13T00:51:34.151Z,0
2018-04-13T00:52:34.122Z,0
2018-04-13T00:53:33.858Z,0
2018-04-13T00:54:33.835Z,0
2018-04-13T00:55:34.091Z,0
2018-04-13T00:56:34.068Z,0
2018-04-13T00:57:33.520Z,0
2018-04-13T00:58:34.041Z,0
2018-04-13T00:59:34.284Z,0
2018-04-13T01:00:33.751Z,0
2018-04-13T01:01:34.257Z,0
2018-04-13T01:02:33.708Z,0
2018-04-13T01:03:33.966Z,0
2018-04-13T01:04:33.940Z,0
2018-04-13T01:05:33.925Z,0
2018-04-13T01:06:33.647Z,0
2018-04-13T01:07:34.175Z,0
2018-04-13T01:08:34.144Z,0
2018-04-13T01:09:33.876Z,0
2018-04-13T01:10:33.587Z,0
2018-04-13T01:11:33.838Z,0
2018-04-13T01:12:34.087Z,0
2018-04-13T01:13:34.097Z,0
2018-04-13T01:14:33.263Z,0
2018-04-13T01:15:34.058Z,0
2018-04-13T01:16:33.765Z,0
2018-04-13T01:17:33.483Z,0
2018-04-13T01:18:33.468Z,0
2018-04-13T01:19:33.990Z,0
2018-04-13T01:20:33.439Z,0
2018-04-13T01:21:33.680Z,0
2018-04-13T01:22:33.670Z,0
2018-04-13T01:23:33.392Z,0
2018-04-13T01:24:33.386Z,0
2018-04-13T01:25:33.104Z,0
2018-04-13T01:26:33.342Z,0
2018-04-13T01:27:33.854Z,0
2018-04-13T01:28:33.581Z,0
2018-04-13T01:29:33.574Z,0
2018-04-13T01:30:33.555Z,0
2018-04-13T01:31:33.804Z,0
2018-04-13T01:32:33.263Z,0
2018-04-13T01:33:33.243Z,0
2018-04-13T01:34:33.550Z,0
2018-04-13T01:35:33.213Z,0
2018-04-13T01:36:33.195Z,0
2018-04-13T01:37:33.700Z,0
2018-04-13T01:38:32.892Z,0
2018-04-13T01:39:33.687Z,0
2018-04-13T01:40:33.660Z,0
2018-04-13T01:41:33.119Z,0
2018-04-13T01:42:33.369Z,0
2018-04-13T01:43:33.360Z,0
2018-04-13T01:44:32.812Z,0
2018-04-13T01:45:33.062Z,0
2018-04-13T01:46:33.304Z,0
2018-04-13T01:47:33.293Z,0
2018-04-13T01:48:33.272Z,0
2018-04-13T01:49:32.734Z,0
2018-04-13T01:50:32.978Z,0
2018-04-13T01:51:32.961Z,0
2018-04-13T01:52:32.953Z,0
2018-04-13T01:53:33.219Z,0
2018-04-13T01:54:32.650Z,0
2018-04-13T01:55:33.179Z,0
2018-04-13T01:56:32.895Z,0
2018-04-13T01:57:32.876Z,0
2018-04-13T01:58:33.120Z,0
2018-04-13T01:59:33.108Z,0
2018-04-13T02:00:32.560Z,0
2018-04-13T02:01:32.812Z,0
2018-04-13T02:02:33.336Z,0
2018-04-13T02:03:33.043Z,0
2018-04-13T02:04:32.498Z,0
2018-04-13T02:05:33.012Z,0
2018-04-13T02:06:33.002Z,0
2018-04-13T02:07:32.982Z,0
2018-04-13T02:08:32.708Z,0
2018-04-13T02:09:32.688Z,0
2018-04-13T02:10:32.945Z,0
2018-04-13T02:11:32.925Z,0
2018-04-13T02:12:32.907Z,0
2018-04-13T02:13:32.636Z,0
2018-04-13T02:14:32.876Z,0
2018-04-13T02:15:33.128Z,0
2018-04-13T02:16:33.108Z,0
2018-04-13T02:17:32.576Z,0
2018-04-13T02:18:33.085Z,0
2018-04-13T02:19:32.808Z,0
2018-04-13T02:20:32.795Z,0
2018-04-13T02:21:32.774Z,0
2018-04-13T02:22:32.503Z,0
2018-04-13T02:23:32.474Z,0
2018-04-13T02:24:32.730Z,0
2018-04-13T02:25:32.501Z,0
2018-04-13T02:26:32.437Z,0
2018-04-13T02:27:32.961Z,0
2018-04-13T02:28:32.990Z,0
2018-04-13T02:29:32.909Z,0
2018-04-13T02:30:32.374Z,0
2018-04-13T02:31:32.641Z,0
2018-04-13T02:32:32.599Z,0
2018-04-13T02:33:32.050Z,0
2018-04-13T02:34:32.125Z,0
2018-04-13T02:35:32.557Z,0
2018-04-13T02:36:32.555Z,0
2018-04-13T02:37:32.528Z,0
2018-04-13T02:38:32.786Z,0
2018-04-13T02:39:32.267Z,0
2018-04-13T02:40:32.216Z,0
2018-04-13T02:41:32.467Z,0
2018-04-13T02:42:32.461Z,0
2018-04-13T02:43:32.439Z,0
2018-04-13T02:44:32.731Z,0
2018-04-13T02:45:32.413Z,0
2018-04-13T02:46:32.675Z,0
2018-04-13T02:47:32.147Z,0
2018-04-13T02:48:32.095Z,0
2018-04-13T02:49:32.423Z,0
2018-04-13T02:50:32.071Z,0
2018-04-13T02:51:32.046Z,0
2018-04-13T02:52:32.035Z,0
2018-04-13T02:53:32.281Z,0
2018-04-13T02:54:32.591Z,0
2018-04-13T02:55:31.986Z,0
2018-04-13T02:56:32.493Z,0
2018-04-13T02:57:32.515Z,0
2018-04-13T02:58:32.212Z,0
2018-04-13T02:59:32.476Z,0
2018-04-13T03:00:32.186Z,0
2018-04-13T03:01:32.475Z,0
2018-04-13T03:02:32.401Z,0
2018-04-13T03:03:31.588Z,0
2018-04-13T03:04:31.844Z,0
2018-04-13T03:05:32.354Z,0
2018-04-13T03:06:32.356Z,0
2018-04-13T03:07:32.065Z,0
2018-04-13T03:08:32.311Z,0
2018-04-13T03:09:32.038Z,0
2018-04-13T03:10:32.020Z,0
2018-04-13T03:11:31.731Z,0
2018-04-13T03:12:31.973Z,0
2018-04-13T03:13:31.978Z,0
2018-04-13T03:14:31.966Z,0
2018-04-13T03:15:31.927Z,0
2018-04-13T03:16:32.190Z,0
2018-04-13T03:17:31.897Z,0
2018-04-13T03:18:31.884Z,0
2018-04-13T03:19:31.333Z,0
2018-04-13T03:20:31.326Z,0
2018-04-13T03:21:31.833Z,0
2018-04-13T03:22:31.550Z,0
2018-04-13T03:23:31.537Z,0
2018-04-13T03:24:32.057Z,0
2018-04-13T03:25:32.041Z,0
2018-04-13T03:26:32.029Z,0
2018-04-13T03:27:32.002Z,0
2018-04-13T03:28:31.724Z,0
2018-04-13T03:29:31.717Z,0
2018-04-13T03:30:31.162Z,0
2018-04-13T03:31:31.694Z,0
2018-04-13T03:32:31.667Z,0
2018-04-13T03:33:31.899Z,0
2018-04-13T03:34:31.362Z,0
2018-04-13T03:35:31.347Z,0
2018-04-13T03:36:31.593Z,0
2018-04-13T03:37:31.571Z,0
2018-04-13T03:38:31.300Z,0
2018-04-13T03:39:31.544Z,0
2018-04-13T03:40:31.525Z,0
2018-04-13T03:41:30.984Z,0
2018-04-13T03:42:31.232Z,0
2018-04-13T03:43:31.481Z,0
2018-04-13T03:44:31.198Z,0
2018-04-13T03:45:31.468Z,0
2018-04-13T03:46:31.434Z,0
2018-04-13T03:47:31.417Z,0
2018-04-13T03:48:31.140Z,0
2018-04-13T03:49:31.115Z,0
2018-04-13T03:50:31.387Z,0
2018-04-13T03:51:31.352Z,0
2018-04-13T03:52:31.073Z,0
2018-04-13T03:53:31.320Z,0
2018-04-13T03:54:31.392Z,0
2018-04-13T03:55:31.288Z,0
2018-04-13T03:56:31.271Z,0
2018-04-13T03:57:31.261Z,0
2018-04-13T03:58:31.245Z,0
2018-04-13T03:59:31.230Z,0
2018-04-13T04:00:30.951Z,0
2018-04-13T04:01:30.923Z,0
2018-04-13T04:02:30.915Z,0
2018-04-13T04:03:31.424Z,0
2018-04-13T04:04:30.613Z,0
2018-04-13T04:05:31.120Z,0
2018-04-13T04:06:30.582Z,0
2018-04-13T04:07:31.358Z,0
2018-04-13T04:08:30.816Z,0
2018-04-13T04:09:31.065Z,0
2018-04-13T04:10:30.511Z,0
2018-04-13T04:11:30.765Z,4
2018-04-13T04:12:31.018Z,4
2018-04-13T04:13:30.469Z,0
2018-04-13T04:14:30.720Z,4
2018-04-13T04:15:30.967Z,4
2018-04-13T04:16:31.037Z,4
2018-04-13T04:17:30.662Z,8
2018-04-13T04:18:31.177Z,8
2018-04-13T04:19:30.633Z,8
2018-04-13T04:20:30.621Z,12
2018-04-13T04:21:30.864Z,12
2018-04-13T04:22:30.584Z,16
2018-04-13T04:23:30.567Z,16
2018-04-13T04:24:30.559Z,20
2018-04-13T04:25:30.796Z,24
2018-04-13T04:26:30.522Z,24
2018-04-13T04:27:30.438Z,28
2018-04-13T04:28:30.485Z,32
2018-04-13T04:29:30.468Z,36
2018-04-13T04:30:30.986Z,44
2018-04-13T04:31:30.720Z,48
2018-04-13T04:32:30.954Z,52
2018-04-13T04:33:30.668Z,60
2018-04-13T04:34:30.732Z,64
2018-04-13T04:35:30.373Z,68
2018-04-13T04:36:30.352Z,76
2018-04-13T04:37:30.605Z,88
2018-04-13T04:38:30.853Z,92
2018-04-13T04:39:30.652Z,104
2018-04-13T04:40:30.298Z,116
2018-04-13T04:41:30.269Z,128
2018-04-13T04:42:30.535Z,144
2018-04-13T04:43:30.245Z,156
2018-04-13T04:44:30.228Z,168
2018-04-13T04:45:30.473Z,184
2018-04-13T04:46:30.727Z,196
2018-04-13T04:47:30.711Z,216
2018-04-13T04:48:29.890Z,232
2018-04-13T04:49:30.678Z,256
2018-04-13T04:50:30.663Z,276
2018-04-13T04:51:29.841Z,300
2018-04-13T04:52:30.366Z,328
2018-04-13T04:53:30.341Z,356
2018-04-13T04:54:30.062Z,392
2018-04-13T04:55:30.575Z,432
2018-04-13T04:56:30.554Z,476
2018-04-13T04:57:30.278Z,528
2018-04-13T04:58:30.267Z,588
2018-04-13T04:59:29.719Z,648
2018-04-13T05:00:29.958Z,724
2018-04-13T05:01:30.204Z,792
2018-04-13T05:02:29.928Z,872
2018-04-13T05:03:29.910Z,948
2018-04-13T05:04:30.194Z,1016
2018-04-13T05:05:30.148Z,1072
2018-04-13T05:06:29.861Z,1128
2018-04-13T05:07:29.851Z,1184
2018-04-13T05:08:30.364Z,1228
2018-04-13T05:09:30.086Z,1260
2018-04-13T05:10:29.800Z,1296
2018-04-13T05:11:30.063Z,1332
2018-04-13T05:12:29.503Z,1376
2018-04-13T05:13:29.752Z,1428
2018-04-13T05:14:30.003Z,1472
2018-04-13T05:15:29.978Z,1532
2018-04-13T05:16:29.975Z,1596
2018-04-13T05:17:29.995Z,1672
2018-04-13T05:18:29.930Z,1752
2018-04-13T05:19:29.386Z,1816
2018-04-13T05:20:29.637Z,1904
2018-04-13T05:21:29.619Z,1996
2018-04-13T05:22:29.607Z,2080
2018-04-13T05:23:29.860Z,2152
2018-04-13T05:24:29.578Z,2220
2018-04-13T05:25:29.559Z,2284
2018-04-13T05:26:30.070Z,2308
2018-04-13T05:27:29.255Z,2308
2018-04-13T05:28:29.772Z,2300
2018-04-13T05:29:29.493Z,2284
2018-04-13T05:30:29.748Z,2284
2018-04-13T05:31:29.731Z,2296
2018-04-13T05:32:29.177Z,2308
2018-04-13T05:33:29.954Z,2316
2018-04-13T05:34:29.434Z,2332
2018-04-13T05:35:29.134Z,2360
2018-04-13T05:36:29.645Z,2412
2018-04-13T05:37:29.637Z,2452
2018-04-13T05:38:29.358Z,2480
2018-04-13T05:39:29.618Z,2500
2018-04-13T05:40:29.580Z,2528
2018-04-13T05:41:29.836Z,2544
2018-04-13T05:42:29.814Z,2552
2018-04-13T05:43:29.266Z,2568
2018-04-13T05:44:29.248Z,2580
2018-04-13T05:45:29.770Z,2576
2018-04-13T05:46:29.218Z,2576
2018-04-13T05:47:29.732Z,2576
2018-04-13T05:48:29.193Z,2588
2018-04-13T05:49:29.718Z,2608
2018-04-13T05:50:29.431Z,2640
2018-04-13T05:51:29.148Z,2684
2018-04-13T05:52:29.127Z,2740
2018-04-13T05:53:29.107Z,2804
2018-04-13T05:54:28.828Z,2880
2018-04-13T05:55:29.350Z,2948
2018-04-13T05:56:29.329Z,3012
2018-04-13T05:57:29.052Z,3072
2018-04-13T05:58:29.564Z,3140
2018-04-13T05:59:29.286Z,3200
2018-04-13T06:00:29.265Z,3220
2018-04-13T06:01:29.257Z,3248
2018-04-13T06:02:29.508Z,3268
2018-04-13T06:03:29.217Z,3280
2018-04-13T06:04:29.215Z,3296
2018-04-13T06:05:29.192Z,3304
2018-04-13T06:06:29.174Z,3312
2018-04-13T06:07:29.158Z,3324
2018-04-13T06:08:29.139Z,3328
2018-04-13T06:09:28.870Z,3332
2018-04-13T06:10:29.115Z,3328
2018-04-13T06:11:28.830Z,3336
2018-04-13T06:12:29.087Z,3336
2018-04-13T06:13:28.825Z,3332
2018-04-13T06:14:28.793Z,3360
2018-04-13T06:15:29.041Z,3436
2018-04-13T06:16:29.295Z,3532
2018-04-13T06:17:28.746Z,3664
2018-04-13T06:18:28.730Z,3808
2018-04-13T06:19:29.029Z,4036
2018-04-13T06:20:28.964Z,4188
2018-04-13T06:21:28.966Z,4296
2018-04-13T06:22:28.930Z,4440
2018-04-13T06:23:28.661Z,4636
2018-04-13T06:24:29.594Z,4908
2018-04-13T06:25:28.632Z,5128
2018-04-13T06:26:28.607Z,5276
2018-04-13T06:27:29.009Z,5444
2018-04-13T06:28:28.625Z,5316
2018-04-13T06:29:28.834Z,5408
2018-04-13T06:30:28.821Z,5500
2018-04-13T06:31:28.805Z,5456
2018-04-13T06:32:28.257Z,5352
2018-04-13T06:33:28.781Z,5248
2018-04-13T06:34:28.766Z,5052
2018-04-13T06:35:28.750Z,4808
2018-04-13T06:36:29.000Z,4596
2018-04-13T06:37:28.715Z,4376
2018-04-13T06:38:28.444Z,4160
2018-04-13T06:39:28.426Z,3984
2018-04-13T06:40:28.406Z,3904
2018-04-13T06:41:28.400Z,3916
2018-04-13T06:42:28.382Z,4072
2018-04-13T06:43:28.638Z,4432
2018-04-13T06:44:28.886Z,4820
2018-04-13T06:45:28.350Z,5024
2018-04-13T06:46:28.592Z,5064
2018-04-13T06:47:28.581Z,4992
2018-04-13T06:48:28.300Z,4868
2018-04-13T06:49:28.020Z,4704
2018-04-13T06:50:28.284Z,4536
2018-04-13T06:51:28.524Z,4388
2018-04-13T06:52:28.511Z,4308
2018-04-13T06:53:28.761Z,4236
2018-04-13T06:54:27.951Z,4148
2018-04-13T06:55:28.468Z,3980
2018-04-13T06:56:28.486Z,3824
2018-04-13T06:57:28.460Z,3728
2018-04-13T06:58:28.440Z,3712
2018-04-13T06:59:28.150Z,3816
2018-04-13T07:00:28.144Z,3988
2018-04-13T07:01:27.855Z,4164
2018-04-13T07:02:28.433Z,4364
2018-04-13T07:03:28.112Z,4580
2018-04-13T07:04:27.815Z,4792
2018-04-13T07:05:27.804Z,5000
2018-04-13T07:06:28.054Z,5212
2018-04-13T07:07:28.566Z,5412
2018-04-13T07:08:28.373Z,5512
2018-04-13T07:09:28.275Z,5484
2018-04-13T07:10:28.269Z,5328
2018-04-13T07:11:27.986Z,5184
2018-04-13T07:12:28.524Z,5096
2018-04-13T07:13:28.236Z,5040
2018-04-13T07:14:27.942Z,4976
2018-04-13T07:15:28.199Z,4936
2018-04-13T07:16:28.194Z,4928
2018-04-13T07:17:27.911Z,4976
2018-04-13T07:18:28.162Z,5052
2018-04-13T07:19:27.958Z,5184
2018-04-13T07:20:27.864Z,5380
2018-04-13T07:21:27.852Z,5612
2018-04-13T07:22:28.381Z,5860
2018-04-13T07:23:28.361Z,6104
2018-04-13T07:24:27.554Z,6340
2018-04-13T07:25:27.805Z,6568
2018-04-13T07:26:27.790Z,6824
2018-04-13T07:27:28.039Z,7132
2018-04-13T07:28:27.756Z,7408
2018-04-13T07:29:28.417Z,7624
2018-04-13T07:30:27.996Z,7832
2018-04-13T07:31:28.342Z,8004
2018-04-13T07:32:27.707Z,8088
2018-04-13T07:33:28.223Z,8100
2018-04-13T07:34:27.703Z,8072
2018-04-13T07:35:27.936Z,8060
2018-04-13T07:36:27.670Z,8012
2018-04-13T07:37:27.913Z,7960
2018-04-13T07:38:28.296Z,7872
2018-04-13T07:39:28.004Z,7776
2018-04-13T07:40:28.143Z,7716
2018-04-13T07:41:28.045Z,7720
2018-04-13T07:42:28.224Z,7748
2018-04-13T07:43:28.103Z,7772
2018-04-13T07:44:27.837Z,7784
2018-04-13T07:45:27.541Z,7772
2018-04-13T07:46:27.800Z,7764
2018-04-13T07:47:27.521Z,7792
2018-04-13T07:48:27.507Z,7828
2018-04-13T07:49:28.028Z,7872
2018-04-13T07:50:27.486Z,7960
2018-04-13T07:51:28.014Z,8092
2018-04-13T07:52:27.819Z,8212
2018-04-13T07:53:27.707Z,8308
2018-04-13T07:54:27.704Z,8396
2018-04-13T07:55:27.421Z,8508
2018-04-13T07:56:27.422Z,8656
2018-04-13T07:57:27.408Z,8788
2018-04-13T07:58:28.274Z,8916
2018-04-13T07:59:28.362Z,9068
2018-04-13T08:00:28.528Z,9212
2018-04-13T08:01:27.355Z,9308
2018-04-13T08:02:27.702Z,9424
2018-04-13T08:03:28.133Z,9520
2018-04-13T08:04:27.632Z,9608
2018-04-13T08:05:27.042Z,9636
2018-04-13T08:06:27.579Z,9568
2018-04-13T08:07:27.283Z,9432
2018-04-13T08:08:27.271Z,9248
2018-04-13T08:09:27.531Z,8952
2018-04-13T08:10:27.520Z,8612
2018-04-13T08:11:27.502Z,8232
2018-04-13T08:12:27.880Z,7816
2018-04-13T08:13:27.223Z,7436
2018-04-13T08:14:26.937Z,7104
2018-04-13T08:15:27.461Z,6808
2018-04-13T08:16:27.452Z,6616
2018-04-13T08:17:27.442Z,6568
2018-04-13T08:18:27.158Z,6648
2018-04-13T08:19:26.878Z,6784
2018-04-13T08:20:27.145Z,6932
2018-04-13T08:21:27.389Z,7052
2018-04-13T08:22:27.113Z,7156
2018-04-13T08:23:27.537Z,7236
2018-04-13T08:24:27.364Z,7308
2018-04-13T08:25:27.078Z,7368
2018-04-13T08:26:27.063Z,7448
2018-04-13T08:27:26.791Z,7564
2018-04-13T08:28:27.768Z,7720
2018-04-13T08:29:27.297Z,7920
2018-04-13T08:30:27.281Z,8196
2018-04-13T08:31:27.006Z,8428
2018-04-13T08:32:27.542Z,8708
2018-04-13T08:33:27.077Z,8956
2018-04-13T08:34:26.973Z,9304
2018-04-13T08:35:27.123Z,9640
2018-04-13T08:36:26.968Z,9928
2018-04-13T08:37:27.557Z,10028
2018-04-13T08:38:26.991Z,10092
2018-04-13T08:39:26.925Z,9996
2018-04-13T08:40:26.637Z,9932
2018-04-13T08:41:26.893Z,9844
2018-04-13T08:42:27.429Z,9772
2018-04-13T08:43:26.643Z,9736
2018-04-13T08:44:26.592Z,9764
2018-04-13T08:45:27.466Z,9900
2018-04-13T08:46:27.104Z,10080
2018-04-13T08:47:27.091Z,10352
2018-04-13T08:48:26.548Z,10644
2018-04-13T08:49:26.537Z,10924
2018-04-13T08:50:27.359Z,11196
2018-04-13T08:51:27.043Z,11516
2018-04-13T08:52:27.176Z,11896
2018-04-13T08:53:26.500Z,12452
2018-04-13T08:54:26.747Z,12852
2018-04-13T08:55:27.006Z,13408
2018-04-13T08:56:27.053Z,13564
2018-04-13T08:57:26.459Z,13900
2018-04-13T08:58:26.972Z,15028
2018-04-13T08:59:26.694Z,15872
2018-04-13T09:00:27.220Z,16800
2018-04-13T09:01:26.940Z,16480
2018-04-13T09:02:27.194Z,16768
2018-04-13T09:03:26.912Z,16480
2018-04-13T09:04:26.651Z,15364
2018-04-13T09:05:26.627Z,13652
2018-04-13T09:06:26.687Z,12868
2018-04-13T09:07:26.381Z,12360
2018-04-13T09:08:26.358Z,11472
2018-04-13T09:09:26.865Z,10864
2018-04-13T09:10:26.587Z,10364
2018-04-13T09:11:26.857Z,10064
2018-04-13T09:12:26.826Z,9900
2018-04-13T09:13:26.815Z,9800
2018-04-13T09:14:26.845Z,9704
2018-04-13T09:15:26.794Z,9604
2018-04-13T09:16:26.790Z,9464
2018-04-13T09:17:26.514Z,9360
2018-04-13T09:18:27.037Z,9272
2018-04-13T09:19:26.496Z,9184
2018-04-13T09:20:26.479Z,9080
2018-04-13T09:21:27.004Z,8960
2018-04-13T09:22:26.728Z,8800
2018-04-13T09:23:26.722Z,8608
2018-04-13T09:24:26.984Z,8392
2018-04-13T09:25:26.701Z,8192
2018-04-13T09:26:26.694Z,7996
2018-04-13T09:27:26.412Z,7848
2018-04-13T09:28:26.669Z,7748
2018-04-13T09:29:26.402Z,7688
2018-04-13T09:30:26.910Z,7656
2018-04-13T09:31:26.429Z,7644
2018-04-13T09:32:26.623Z,7660
2018-04-13T09:33:26.622Z,7708
2018-04-13T09:34:26.603Z,7792
2018-04-13T09:35:26.065Z,7904
2018-04-13T09:36:26.596Z,8060
2018-04-13T09:37:26.622Z,8260
2018-04-13T09:38:26.828Z,8492
2018-04-13T09:39:26.828Z,8696
2018-04-13T09:40:26.807Z,8848
2018-04-13T09:41:26.271Z,8892
2018-04-13T09:42:25.995Z,8844
2018-04-13T09:43:26.250Z,8748
2018-04-13T09:44:26.852Z,8612
2018-04-13T09:45:26.224Z,8448
2018-04-13T09:46:26.244Z,8284
2018-04-13T09:47:26.478Z,8124
2018-04-13T09:48:26.459Z,7972
2018-04-13T09:49:26.453Z,7812
2018-04-13T09:50:26.455Z,7696
2018-04-13T09:51:25.896Z,7632
2018-04-13T09:52:25.889Z,7620
2018-04-13T09:53:26.427Z,7688
2018-04-13T09:54:26.141Z,7836
2018-04-13T09:55:26.132Z,8080
2018-04-13T09:56:26.124Z,8388
2018-04-13T09:57:26.373Z,8712
2018-04-13T09:58:26.103Z,8940
2018-04-13T09:59:26.083Z,8932
2018-04-13T10:00:26.344Z,8704
2018-04-13T10:01:26.332Z,8308
2018-04-13T10:02:26.069Z,7892
2018-04-13T10:03:26.577Z,7572
2018-04-13T10:04:26.307Z,7408
2018-04-13T10:05:26.295Z,7360
2018-04-13T10:06:26.543Z,7364
2018-04-13T10:07:26.050Z,7348
2018-04-13T10:08:25.995Z,7340
2018-04-13T10:09:26.248Z,7336
2018-04-13T10:10:26.245Z,7340
2018-04-13T10:11:25.960Z,7376
2018-04-13T10:12:25.953Z,7480
2018-04-13T10:13:25.940Z,7628
2018-04-13T10:14:26.198Z,7816
2018-04-13T10:15:26.186Z,8012
2018-04-13T10:16:25.921Z,8172
2018-04-13T10:17:26.374Z,8280
2018-04-13T10:18:26.165Z,8296
2018-04-13T10:19:25.887Z,8220
2018-04-13T10:20:26.137Z,8052
2018-04-13T10:21:26.129Z,7868
2018-04-13T10:22:26.116Z,7736
2018-04-13T10:23:26.104Z,7676
2018-04-13T10:24:25.828Z,7644
2018-04-13T10:25:26.088Z,7604
2018-04-13T10:26:25.812Z,7548
2018-04-13T10:27:25.799Z,7424
2018-04-13T10:28:25.991Z,7272
2018-04-13T10:29:25.781Z,7128
2018-04-13T10:30:26.028Z,7024
2018-04-13T10:31:26.288Z,6968
2018-04-13T10:32:26.298Z,6964
2018-04-13T10:33:25.737Z,6984
2018-04-13T10:34:26.265Z,7004
2018-04-13T10:35:25.725Z,7028
2018-04-13T10:36:25.706Z,7076
2018-04-13T10:37:25.694Z,7160
2018-04-13T10:38:26.208Z,7292
2018-04-13T10:39:25.428Z,7492
2018-04-13T10:40:25.674Z,7804
2018-04-13T10:41:25.658Z,8260
2018-04-13T10:42:25.650Z,8836
2018-04-13T10:43:25.905Z,9368
2018-04-13T10:44:25.902Z,9720
2018-04-13T10:45:25.887Z,9932
2018-04-13T10:46:25.605Z,10012
2018-04-13T10:47:26.127Z,10160
2018-04-13T10:48:25.853Z,10320
2018-04-13T10:49:25.663Z,10532
2018-04-13T10:50:25.835Z,9608
2018-04-13T10:51:26.088Z,11312
2018-04-13T10:52:25.558Z,11764
2018-04-13T10:53:26.074Z,12032
2018-04-13T10:54:25.793Z,11836
2018-04-13T10:55:26.046Z,11268
2018-04-13T10:56:25.507Z,10616
2018-04-13T10:57:25.762Z,9964
2018-04-13T10:58:26.012Z,9432
2018-04-13T10:59:26.017Z,9096
2018-04-13T11:00:25.480Z,8980
2018-04-13T11:01:25.463Z,9020
2018-04-13T11:02:25.728Z,9112
2018-04-13T11:03:25.448Z,9184
2018-04-13T11:04:25.425Z,9164
2018-04-13T11:05:25.152Z,9056
2018-04-13T11:06:25.461Z,8912
2018-04-13T11:07:25.402Z,8784
2018-04-13T11:08:25.122Z,8664
2018-04-13T11:09:25.672Z,8500
2018-04-13T11:10:25.675Z,8296
2018-04-13T11:11:25.629Z,8020
2018-04-13T11:12:25.619Z,7812
2018-04-13T11:13:25.870Z,7460
2018-04-13T11:14:25.594Z,7124
2018-04-13T11:15:25.592Z,6800
2018-04-13T11:16:25.317Z,6516
2018-04-13T11:17:25.578Z,6268
2018-04-13T11:18:25.555Z,6032
2018-04-13T11:19:25.299Z,5828
2018-04-13T11:20:25.284Z,5648
2018-04-13T11:21:25.263Z,5504
2018-04-13T11:22:25.563Z,5396
2018-04-13T11:23:25.239Z,5312
2018-04-13T11:24:25.541Z,5244
2018-04-13T11:25:25.216Z,5180
2018-04-13T11:26:25.477Z,5132
2018-04-13T11:27:25.465Z,5072
2018-04-13T11:28:25.468Z,4996
2018-04-13T11:29:25.452Z,4904
2018-04-13T11:30:25.439Z,4796
2018-04-13T11:31:25.162Z,4680
2018-04-13T11:32:25.427Z,4584
2018-04-13T11:33:25.402Z,4524
2018-04-13T11:34:25.673Z,4512
2018-04-13T11:35:25.379Z,4560
2018-04-13T11:36:25.106Z,4640
2018-04-13T11:37:25.362Z,4768
2018-04-13T11:38:25.090Z,4924
2018-04-13T11:39:25.618Z,5128
2018-04-13T11:40:25.076Z,5368
2018-04-13T11:41:25.068Z,5660
2018-04-13T11:42:25.042Z,5992
2018-04-13T11:43:25.311Z,6332
2018-04-13T11:44:25.036Z,6636
2018-04-13T11:45:25.540Z,6900
2018-04-13T11:46:25.011Z,7120
2018-04-13T11:47:25.253Z,7292
2018-04-13T11:48:24.984Z,7440
2018-04-13T11:49:25.246Z,7520
2018-04-13T11:50:25.485Z,7556
2018-04-13T11:51:25.006Z,7492
2018-04-13T11:52:24.932Z,7372
2018-04-13T11:53:25.195Z,7152
2018-04-13T11:54:25.179Z,6964
2018-04-13T11:55:25.431Z,6764
2018-04-13T11:56:25.423Z,6564
2018-04-13T11:57:25.150Z,6428
2018-04-13T11:58:25.139Z,6264
2018-04-13T11:59:25.139Z,6144
2018-04-13T12:00:24.864Z,6032
2018-04-13T12:01:25.125Z,5920
2018-04-13T12:02:25.107Z,5848
2018-04-13T12:03:25.097Z,5772
2018-04-13T12:04:25.073Z,5704
2018-04-13T12:05:24.795Z,5636
2018-04-13T12:06:25.045Z,5564
2018-04-13T12:07:25.319Z,5496
2018-04-13T12:08:25.024Z,5408
2018-04-13T12:09:25.024Z,5332
2018-04-13T12:10:24.740Z,5220
2018-04-13T12:11:25.256Z,5096
2018-04-13T12:12:24.719Z,4960
2018-04-13T12:13:24.979Z,4812
2018-04-13T12:14:24.696Z,4664
2018-04-13T12:15:24.686Z,4488
2018-04-13T12:16:24.942Z,4308
2018-04-13T12:17:24.926Z,4144
2018-04-13T12:18:25.180Z,3976
2018-04-13T12:19:24.640Z,3824
2018-04-13T12:20:25.235Z,3696
2018-04-13T12:21:25.159Z,3572
2018-04-13T12:22:24.889Z,3488
2018-04-13T12:23:24.916Z,3416
2018-04-13T12:24:24.849Z,3336
2018-04-13T12:25:24.834Z,3244
2018-04-13T12:26:25.090Z,3172
2018-04-13T12:27:24.563Z,3124
2018-04-13T12:28:25.009Z,3104
2018-04-13T12:29:24.799Z,3100
2018-04-13T12:30:24.777Z,3080
2018-04-13T12:31:24.867Z,3064
2018-04-13T12:32:24.764Z,3008
2018-04-13T12:33:24.496Z,2944
2018-04-13T12:34:25.073Z,2892
2018-04-13T12:35:24.202Z,2912
2018-04-13T12:36:24.457Z,3000
2018-04-13T12:37:24.971Z,3032
2018-04-13T12:38:25.143Z,2988
2018-04-13T12:39:24.677Z,3024
2018-04-13T12:40:24.935Z,3172
2018-04-13T12:41:24.649Z,3396
2018-04-13T12:42:24.641Z,3636
2018-04-13T12:43:24.904Z,3828
2018-04-13T12:44:24.348Z,4080
2018-04-13T12:45:24.934Z,4472
2018-04-13T12:46:24.590Z,4816
2018-04-13T12:47:24.310Z,4988
2018-04-13T12:48:24.304Z,5248
2018-04-13T12:49:24.820Z,5560
2018-04-13T12:50:24.278Z,5892
2018-04-13T12:51:24.266Z,6244
2018-04-13T12:52:24.250Z,6500
2018-04-13T12:53:24.600Z,6524
2018-04-13T12:54:24.726Z,6552
2018-04-13T12:55:24.568Z,6832
2018-04-13T12:56:24.634Z,7256
2018-04-13T12:57:24.727Z,7552
2018-04-13T12:58:24.456Z,7724
2018-04-13T12:59:24.435Z,7872
2018-04-13T13:00:24.162Z,7956
2018-04-13T13:01:24.680Z,7956
2018-04-13T13:02:24.137Z,7980
2018-04-13T13:03:24.395Z,7772
2018-04-13T13:04:24.118Z,7628
2018-04-13T13:05:24.367Z,7340
2018-04-13T13:06:24.624Z,6800
2018-04-13T13:07:24.082Z,6180
2018-04-13T13:08:24.341Z,5752
2018-04-13T13:09:24.059Z,5348
2018-04-13T13:10:24.625Z,5012
2018-04-13T13:11:24.305Z,4676
2018-04-13T13:12:23.757Z,4344
2018-04-13T13:13:23.746Z,4028
2018-04-13T13:14:24.274Z,3828
2018-04-13T13:15:24.251Z,3660
2018-04-13T13:16:23.731Z,3540
2018-04-13T13:17:24.271Z,3432
2018-04-13T13:18:24.219Z,3344
2018-04-13T13:19:24.216Z,3292
2018-04-13T13:20:23.934Z,3192
2018-04-13T13:21:24.196Z,3072
2018-04-13T13:22:23.908Z,2968
2018-04-13T13:23:24.162Z,2872
2018-04-13T13:24:23.626Z,2780
2018-04-13T13:25:23.609Z,2764
2018-04-13T13:26:24.129Z,2748
2018-04-13T13:27:23.862Z,2704
2018-04-13T13:28:24.104Z,2604
2018-04-13T13:29:24.105Z,2464
2018-04-13T13:30:24.080Z,2332
2018-04-13T13:31:24.068Z,2204
2018-04-13T13:32:24.330Z,2104
2018-04-13T13:33:23.520Z,2028
2018-04-13T13:34:24.035Z,1972
2018-04-13T13:35:23.756Z,1944
2018-04-13T13:36:24.272Z,1944
2018-04-13T13:37:24.035Z,1912
2018-04-13T13:38:24.258Z,1852
2018-04-13T13:39:23.976Z,1808
2018-04-13T13:40:23.961Z,1796
2018-04-13T13:41:23.682Z,1828
2018-04-13T13:42:23.932Z,1928
2018-04-13T13:43:23.947Z,2024
2018-04-13T13:44:23.648Z,2120
2018-04-13T13:45:23.631Z,2212